sensor_id;sensor_type;location;lat;lon;timestamp;P1;durP1;ratioP1;P2;durP2;ratioP2
50219;SDS011;36110;51.536;7.562;2022-08-24T00:01:08;1.27;;;1.23;;
50219;SDS011;36110;51.536;7.562;2022-08-24T00:03:35;1.67;;;1.58;;
50219;SDS011;36110;51.536;7.562;2022-08-24T00:06:02;1.30;;;1.20;;
50219;SDS011;36110;51.536;7.562;2022-08-24T00:08:28;1.30;;;1.20;;
50219;SDS011;36110;51.536;7.562;2022-08-24T00:10:53;1.40;;;1.30;;
50219;SDS011;36110;51.536;7.562;2022-08-24T00:13:19;1.30;;;1.20;;
50219;SDS011;36110;51.536;7.562;2022-08-24T00:15:45;2.50;;;1.48;;
50219;SDS011;36110;51.536;7.562;2022-08-24T00:18:10;1.50;;;1.40;;
50219;SDS011;36110;51.536;7.562;2022-08-24T00:20:36;1.60;;;1.50;;
50219;SDS011;36110;51.536;7.562;2022-08-24T00:23:02;1.40;;;1.30;;
50219;SDS011;36110;51.536;7.562;2022-08-24T00:25:28;1.30;;;1.20;;
50219;SDS011;36110;51.536;7.562;2022-08-24T00:27:53;1.50;;;1.40;;
50219;SDS011;36110;51.536;7.562;2022-08-24T00:30:19;1.92;;;1.70;;
50219;SDS011;36110;51.536;7.562;2022-08-24T00:32:45;1.30;;;1.20;;
50219;SDS011;36110;51.536;7.562;2022-08-24T00:35:12;1.45;;;1.35;;
50219;SDS011;36110;51.536;7.562;2022-08-24T00:37:39;1.20;;;1.17;;
50219;SDS011;36110;51.536;7.562;2022-08-24T00:40:07;1.38;;;1.27;;
50219;SDS011;36110;51.536;7.562;2022-08-24T00:42:36;1.42;;;1.20;;
50219;SDS011;36110;51.536;7.562;2022-08-24T00:45:03;1.35;;;1.25;;
50219;SDS011;36110;51.536;7.562;2022-08-24T00:47:31;1.40;;;1.30;;
50219;SDS011;36110;51.536;7.562;2022-08-24T00:50:06;1.95;;;1.40;;
50219;SDS011;36110;51.536;7.562;2022-08-24T00:52:37;3.00;;;1.42;;
50219;SDS011;36110;51.536;7.562;2022-08-24T00:55:09;6.00;;;3.33;;
50219;SDS011;36110;51.536;7.562;2022-08-24T00:57:39;1.35;;;1.30;;
50219;SDS011;36110;51.536;7.562;2022-08-24T01:00:10;1.30;;;1.20;;
50219;SDS011;36110;51.536;7.562;2022-08-24T01:02:40;4.32;;;2.83;;
50219;SDS011;36110;51.536;7.562;2022-08-24T01:05:08;1.35;;;1.25;;
50219;SDS011;36110;51.536;7.562;2022-08-24T01:07:36;1.85;;;1.75;;
50219;SDS011;36110;51.536;7.562;2022-08-24T01:10:05;1.58;;;1.48;;
50219;SDS011;36110;51.536;7.562;2022-08-24T01:12:34;1.70;;;1.60;;
50219;SDS011;36110;51.536;7.562;2022-08-24T01:15:00;1.75;;;1.65;;
50219;SDS011;36110;51.536;7.562;2022-08-24T01:17:28;7.60;;;3.78;;
50219;SDS011;36110;51.536;7.562;2022-08-24T01:20:12;1.88;;;1.55;;
50219;SDS011;36110;51.536;7.562;2022-08-24T01:22:44;1.58;;;1.48;;
50219;SDS011;36110;51.536;7.562;2022-08-24T01:25:17;1.20;;;1.10;;
50219;SDS011;36110;51.536;7.562;2022-08-24T01:27:43;1.48;;;1.38;;
50219;SDS011;36110;51.536;7.562;2022-08-24T01:30:10;1.48;;;1.38;;
50219;SDS011;36110;51.536;7.562;2022-08-24T01:32:37;1.45;;;1.35;;
50219;SDS011;36110;51.536;7.562;2022-08-24T01:35:03;1.40;;;1.30;;
50219;SDS011;36110;51.536;7.562;2022-08-24T01:37:29;1.40;;;1.30;;
50219;SDS011;36110;51.536;7.562;2022-08-24T01:39:56;1.52;;;1.42;;
50219;SDS011;36110;51.536;7.562;2022-08-24T01:42:22;1.48;;;1.38;;
50219;SDS011;36110;51.536;7.562;2022-08-24T01:44:48;5.75;;;3.53;;
50219;SDS011;36110;51.536;7.562;2022-08-24T01:47:14;1.38;;;1.27;;
50219;SDS011;36110;51.536;7.562;2022-08-24T01:49:42;1.30;;;1.23;;
50219;SDS011;36110;51.536;7.562;2022-08-24T01:52:11;1.65;;;1.40;;
50219;SDS011;36110;51.536;7.562;2022-08-24T01:54:39;1.50;;;1.40;;
50219;SDS011;36110;51.536;7.562;2022-08-24T01:57:05;1.30;;;1.20;;
50219;SDS011;36110;51.536;7.562;2022-08-24T01:59:31;1.70;;;1.60;;
50219;SDS011;36110;51.536;7.562;2022-08-24T02:02:01;1.48;;;1.38;;
50219;SDS011;36110;51.536;7.562;2022-08-24T02:04:29;1.10;;;1.10;;
50219;SDS011;36110;51.536;7.562;2022-08-24T02:06:54;1.50;;;1.40;;
50219;SDS011;36110;51.536;7.562;2022-08-24T02:09:19;1.48;;;1.38;;
50219;SDS011;36110;51.536;7.562;2022-08-24T02:11:45;1.42;;;1.33;;
50219;SDS011;36110;51.536;7.562;2022-08-24T02:14:11;2.08;;;1.65;;
50219;SDS011;36110;51.536;7.562;2022-08-24T02:16:37;1.42;;;1.33;;
50219;SDS011;36110;51.536;7.562;2022-08-24T02:19:03;1.30;;;1.20;;
50219;SDS011;36110;51.536;7.562;2022-08-24T02:21:28;1.52;;;1.42;;
50219;SDS011;36110;51.536;7.562;2022-08-24T02:23:53;7.43;;;3.83;;
50219;SDS011;36110;51.536;7.562;2022-08-24T02:26:19;3.25;;;1.65;;
50219;SDS011;36110;51.536;7.562;2022-08-24T02:28:44;1.25;;;1.10;;
50219;SDS011;36110;51.536;7.562;2022-08-24T02:31:10;1.23;;;1.20;;
50219;SDS011;36110;51.536;7.562;2022-08-24T02:33:37;9.07;;;1.42;;
50219;SDS011;36110;51.536;7.562;2022-08-24T02:36:03;1.60;;;1.50;;
50219;SDS011;36110;51.536;7.562;2022-08-24T02:38:29;1.20;;;1.20;;
50219;SDS011;36110;51.536;7.562;2022-08-24T02:40:54;1.50;;;1.40;;
50219;SDS011;36110;51.536;7.562;2022-08-24T02:43:21;1.65;;;1.40;;
50219;SDS011;36110;51.536;7.562;2022-08-24T02:45:47;1.67;;;1.58;;
50219;SDS011;36110;51.536;7.562;2022-08-24T02:48:12;6.70;;;2.95;;
50219;SDS011;36110;51.536;7.562;2022-08-24T02:50:42;1.65;;;1.55;;
50219;SDS011;36110;51.536;7.562;2022-08-24T02:53:10;1.60;;;1.42;;
50219;SDS011;36110;51.536;7.562;2022-08-24T02:55:38;1.67;;;1.30;;
50219;SDS011;36110;51.536;7.562;2022-08-24T02:58:05;1.70;;;1.60;;
50219;SDS011;36110;51.536;7.562;2022-08-24T03:00:31;1.40;;;1.30;;
50219;SDS011;36110;51.536;7.562;2022-08-24T03:02:56;1.50;;;1.40;;
50219;SDS011;36110;51.536;7.562;2022-08-24T03:05:22;1.42;;;1.33;;
50219;SDS011;36110;51.536;7.562;2022-08-24T03:07:47;1.77;;;1.48;;
50219;SDS011;36110;51.536;7.562;2022-08-24T03:10:13;1.50;;;1.40;;
50219;SDS011;36110;51.536;7.562;2022-08-24T03:12:38;1.40;;;1.30;;
50219;SDS011;36110;51.536;7.562;2022-08-24T03:15:04;1.50;;;1.40;;
50219;SDS011;36110;51.536;7.562;2022-08-24T03:17:31;1.45;;;1.35;;
50219;SDS011;36110;51.536;7.562;2022-08-24T03:19:58;1.33;;;1.10;;
50219;SDS011;36110;51.536;7.562;2022-08-24T03:22:24;1.27;;;1.17;;
50219;SDS011;36110;51.536;7.562;2022-08-24T03:24:51;1.50;;;1.40;;
50219;SDS011;36110;51.536;7.562;2022-08-24T03:27:17;1.30;;;1.20;;
50219;SDS011;36110;51.536;7.562;2022-08-24T03:29:43;1.50;;;1.40;;
50219;SDS011;36110;51.536;7.562;2022-08-24T03:32:08;1.40;;;1.30;;
50219;SDS011;36110;51.536;7.562;2022-08-24T03:34:34;1.42;;;1.33;;
50219;SDS011;36110;51.536;7.562;2022-08-24T03:37:00;1.40;;;1.30;;
50219;SDS011;36110;51.536;7.562;2022-08-24T03:39:25;1.65;;;1.55;;
50219;SDS011;36110;51.536;7.562;2022-08-24T03:41:51;1.40;;;1.30;;
50219;SDS011;36110;51.536;7.562;2022-08-24T03:44:16;1.60;;;1.50;;
50219;SDS011;36110;51.536;7.562;2022-08-24T03:46:41;1.92;;;1.45;;
50219;SDS011;36110;51.536;7.562;2022-08-24T03:49:07;1.75;;;1.40;;
50219;SDS011;36110;51.536;7.562;2022-08-24T03:51:34;1.50;;;1.40;;
50219;SDS011;36110;51.536;7.562;2022-08-24T03:54:00;1.60;;;1.50;;
50219;SDS011;36110;51.536;7.562;2022-08-24T03:56:26;1.30;;;1.20;;
50219;SDS011;36110;51.536;7.562;2022-08-24T03:58:52;2.33;;;1.90;;
50219;SDS011;36110;51.536;7.562;2022-08-24T04:01:19;1.58;;;1.45;;
50219;SDS011;36110;51.536;7.562;2022-08-24T04:03:45;1.58;;;1.48;;
50219;SDS011;36110;51.536;7.562;2022-08-24T04:06:14;1.48;;;1.38;;
50219;SDS011;36110;51.536;7.562;2022-08-24T04:08:41;1.38;;;1.30;;
50219;SDS011;36110;51.536;7.562;2022-08-24T04:11:14;1.60;;;1.50;;
50219;SDS011;36110;51.536;7.562;2022-08-24T04:13:42;1.70;;;1.60;;
50219;SDS011;36110;51.536;7.562;2022-08-24T04:16:12;1.50;;;1.40;;
50219;SDS011;36110;51.536;7.562;2022-08-24T04:18:39;1.60;;;1.50;;
50219;SDS011;36110;51.536;7.562;2022-08-24T04:21:05;1.48;;;1.38;;
50219;SDS011;36110;51.536;7.562;2022-08-24T04:23:31;1.45;;;1.27;;
50219;SDS011;36110;51.536;7.562;2022-08-24T04:26:00;1.40;;;1.30;;
50219;SDS011;36110;51.536;7.562;2022-08-24T04:28:27;1.50;;;1.40;;
50219;SDS011;36110;51.536;7.562;2022-08-24T04:30:53;1.13;;;1.13;;
50219;SDS011;36110;51.536;7.562;2022-08-24T04:33:19;1.30;;;1.30;;
50219;SDS011;36110;51.536;7.562;2022-08-24T04:35:45;1.60;;;1.50;;
50219;SDS011;36110;51.536;7.562;2022-08-24T04:38:12;1.95;;;1.40;;
50219;SDS011;36110;51.536;7.562;2022-08-24T04:40:39;1.27;;;1.17;;
50219;SDS011;36110;51.536;7.562;2022-08-24T04:43:05;1.48;;;1.38;;
50219;SDS011;36110;51.536;7.562;2022-08-24T04:45:32;2.90;;;1.73;;
50219;SDS011;36110;51.536;7.562;2022-08-24T04:47:58;1.30;;;1.20;;
50219;SDS011;36110;51.536;7.562;2022-08-24T04:50:23;4.72;;;2.30;;
50219;SDS011;36110;51.536;7.562;2022-08-24T04:52:49;1.60;;;1.50;;
50219;SDS011;36110;51.536;7.562;2022-08-24T04:55:14;1.67;;;1.58;;
50219;SDS011;36110;51.536;7.562;2022-08-24T04:57:40;1.48;;;1.35;;
50219;SDS011;36110;51.536;7.562;2022-08-24T05:00:05;1.10;;;1.10;;
50219;SDS011;36110;51.536;7.562;2022-08-24T05:02:33;1.52;;;1.42;;
50219;SDS011;36110;51.536;7.562;2022-08-24T05:04:59;1.40;;;1.30;;
50219;SDS011;36110;51.536;7.562;2022-08-24T05:07:24;1.70;;;1.60;;
50219;SDS011;36110;51.536;7.562;2022-08-24T05:09:50;1.60;;;1.50;;
50219;SDS011;36110;51.536;7.562;2022-08-24T05:12:15;1.60;;;1.50;;
50219;SDS011;36110;51.536;7.562;2022-08-24T05:14:41;1.40;;;1.30;;
50219;SDS011;36110;51.536;7.562;2022-08-24T05:17:06;1.73;;;1.40;;
50219;SDS011;36110;51.536;7.562;2022-08-24T05:19:31;9.10;;;2.83;;
50219;SDS011;36110;51.536;7.562;2022-08-24T05:21:57;8.65;;;4.55;;
50219;SDS011;36110;51.536;7.562;2022-08-24T05:24:22;8.60;;;4.30;;
50219;SDS011;36110;51.536;7.562;2022-08-24T05:26:47;9.73;;;4.38;;
50219;SDS011;36110;51.536;7.562;2022-08-24T05:29:13;7.15;;;4.13;;
50219;SDS011;36110;51.536;7.562;2022-08-24T05:31:41;11.35;;;4.63;;
50219;SDS011;36110;51.536;7.562;2022-08-24T05:34:08;10.20;;;4.18;;
50219;SDS011;36110;51.536;7.562;2022-08-24T05:36:34;10.25;;;4.18;;
50219;SDS011;36110;51.536;7.562;2022-08-24T05:39:04;8.27;;;4.15;;
50219;SDS011;36110;51.536;7.562;2022-08-24T05:41:35;7.55;;;3.90;;
50219;SDS011;36110;51.536;7.562;2022-08-24T05:44:00;7.35;;;3.67;;
50219;SDS011;36110;51.536;7.562;2022-08-24T05:46:27;5.68;;;3.70;;
50219;SDS011;36110;51.536;7.562;2022-08-24T05:48:52;5.10;;;3.53;;
50219;SDS011;36110;51.536;7.562;2022-08-24T05:51:18;9.07;;;4.57;;
50219;SDS011;36110;51.536;7.562;2022-08-24T05:53:44;13.82;;;4.70;;
50219;SDS011;36110;51.536;7.562;2022-08-24T05:56:11;9.07;;;4.40;;
50219;SDS011;36110;51.536;7.562;2022-08-24T05:58:37;7.15;;;4.13;;
50219;SDS011;36110;51.536;7.562;2022-08-24T06:03:32;6.18;;;4.15;;
50219;SDS011;36110;51.536;7.562;2022-08-24T06:05:58;7.30;;;4.22;;
50219;SDS011;36110;51.536;7.562;2022-08-24T06:08:23;9.02;;;3.80;;
50219;SDS011;36110;51.536;7.562;2022-08-24T06:10:48;7.50;;;3.88;;
50219;SDS011;36110;51.536;7.562;2022-08-24T06:13:14;6.43;;;3.80;;
50219;SDS011;36110;51.536;7.562;2022-08-24T06:15:40;6.93;;;3.97;;
50219;SDS011;36110;51.536;7.562;2022-08-24T06:18:06;5.82;;;3.60;;
50219;SDS011;36110;51.536;7.562;2022-08-24T06:20:32;7.75;;;4.53;;
50219;SDS011;36110;51.536;7.562;2022-08-24T06:23:01;11.27;;;4.55;;
50219;SDS011;36110;51.536;7.562;2022-08-24T06:25:26;6.93;;;4.00;;
50219;SDS011;36110;51.536;7.562;2022-08-24T06:28:10;5.78;;;3.60;;
50219;SDS011;36110;51.536;7.562;2022-08-24T06:30:35;5.05;;;3.65;;
50219;SDS011;36110;51.536;7.562;2022-08-24T06:33:01;7.25;;;3.33;;
50219;SDS011;36110;51.536;7.562;2022-08-24T06:35:27;8.60;;;3.55;;
50219;SDS011;36110;51.536;7.562;2022-08-24T06:37:52;7.47;;;3.70;;
50219;SDS011;36110;51.536;7.562;2022-08-24T06:40:18;6.55;;;3.50;;
50219;SDS011;36110;51.536;7.562;2022-08-24T06:42:46;9.40;;;4.00;;
50219;SDS011;36110;51.536;7.562;2022-08-24T06:45:12;5.88;;;3.55;;
50219;SDS011;36110;51.536;7.562;2022-08-24T06:47:38;6.82;;;4.18;;
50219;SDS011;36110;51.536;7.562;2022-08-24T06:50:04;5.45;;;3.30;;
50219;SDS011;36110;51.536;7.562;2022-08-24T06:52:30;5.22;;;3.47;;
50219;SDS011;36110;51.536;7.562;2022-08-24T06:54:56;4.15;;;3.50;;
50219;SDS011;36110;51.536;7.562;2022-08-24T06:57:21;4.95;;;3.40;;
50219;SDS011;36110;51.536;7.562;2022-08-24T06:59:46;5.00;;;3.47;;
50219;SDS011;36110;51.536;7.562;2022-08-24T07:02:12;5.35;;;3.80;;
50219;SDS011;36110;51.536;7.562;2022-08-24T07:04:39;5.50;;;3.50;;
50219;SDS011;36110;51.536;7.562;2022-08-24T07:07:06;12.05;;;3.90;;
50219;SDS011;36110;51.536;7.562;2022-08-24T07:09:31;4.60;;;3.08;;
50219;SDS011;36110;51.536;7.562;2022-08-24T07:11:57;5.43;;;3.33;;
50219;SDS011;36110;51.536;7.562;2022-08-24T07:14:22;7.40;;;3.22;;
50219;SDS011;36110;51.536;7.562;2022-08-24T07:16:47;9.88;;;3.85;;
50219;SDS011;36110;51.536;7.562;2022-08-24T07:19:13;7.65;;;3.80;;
50219;SDS011;36110;51.536;7.562;2022-08-24T07:21:39;8.63;;;3.40;;
50219;SDS011;36110;51.536;7.562;2022-08-24T07:24:04;4.75;;;3.30;;
50219;SDS011;36110;51.536;7.562;2022-08-24T07:26:31;6.15;;;3.42;;
50219;SDS011;36110;51.536;7.562;2022-08-24T07:28:58;5.50;;;3.28;;
50219;SDS011;36110;51.536;7.562;2022-08-24T07:31:29;5.20;;;3.03;;
50219;SDS011;36110;51.536;7.562;2022-08-24T07:33:57;4.97;;;3.25;;
50219;SDS011;36110;51.536;7.562;2022-08-24T07:36:23;8.07;;;3.50;;
50219;SDS011;36110;51.536;7.562;2022-08-24T07:38:49;11.50;;;3.50;;
50219;SDS011;36110;51.536;7.562;2022-08-24T07:41:16;3.25;;;2.92;;
50219;SDS011;36110;51.536;7.562;2022-08-24T07:43:41;3.22;;;2.92;;
50219;SDS011;36110;51.536;7.562;2022-08-24T07:46:06;5.88;;;2.72;;
50219;SDS011;36110;51.536;7.562;2022-08-24T07:48:32;3.92;;;3.05;;
50219;SDS011;36110;51.536;7.562;2022-08-24T07:51:04;3.90;;;2.80;;
50219;SDS011;36110;51.536;7.562;2022-08-24T07:53:31;5.18;;;2.70;;
50219;SDS011;36110;51.536;7.562;2022-08-24T07:55:56;7.13;;;3.03;;
50219;SDS011;36110;51.536;7.562;2022-08-24T07:58:22;5.00;;;2.97;;
50219;SDS011;36110;51.536;7.562;2022-08-24T08:00:48;5.35;;;3.20;;
50219;SDS011;36110;51.536;7.562;2022-08-24T08:03:14;3.40;;;2.70;;
50219;SDS011;36110;51.536;7.562;2022-08-24T08:05:39;10.73;;;3.00;;
50219;SDS011;36110;51.536;7.562;2022-08-24T08:08:05;7.10;;;3.30;;
50219;SDS011;36110;51.536;7.562;2022-08-24T08:10:31;8.48;;;3.10;;
50219;SDS011;36110;51.536;7.562;2022-08-24T08:12:59;5.82;;;2.80;;
50219;SDS011;36110;51.536;7.562;2022-08-24T08:15:25;4.00;;;3.13;;
50219;SDS011;36110;51.536;7.562;2022-08-24T08:17:51;4.95;;;3.15;;
50219;SDS011;36110;51.536;7.562;2022-08-24T08:20:16;4.13;;;2.85;;
50219;SDS011;36110;51.536;7.562;2022-08-24T08:22:42;7.10;;;3.53;;
50219;SDS011;36110;51.536;7.562;2022-08-24T08:25:26;9.27;;;3.13;;
50219;SDS011;36110;51.536;7.562;2022-08-24T08:27:51;5.40;;;3.00;;
50219;SDS011;36110;51.536;7.562;2022-08-24T08:30:16;4.13;;;2.70;;
50219;SDS011;36110;51.536;7.562;2022-08-24T08:32:42;2.63;;;2.40;;
50219;SDS011;36110;51.536;7.562;2022-08-24T08:35:07;3.33;;;2.60;;
50219;SDS011;36110;51.536;7.562;2022-08-24T08:37:33;3.95;;;2.80;;
50219;SDS011;36110;51.536;7.562;2022-08-24T08:39:58;8.20;;;3.22;;
50219;SDS011;36110;51.536;7.562;2022-08-24T08:59:16;3.13;;;2.38;;
50219;SDS011;36110;51.536;7.562;2022-08-24T09:01:47;6.93;;;2.50;;
50219;SDS011;36110;51.536;7.562;2022-08-24T09:10:06;6.13;;;2.40;;
50219;SDS011;36110;51.536;7.562;2022-08-24T09:15:54;5.32;;;2.60;;
50219;SDS011;36110;51.536;7.562;2022-08-24T09:18:44;5.65;;;2.92;;
50219;SDS011;36110;51.536;7.562;2022-08-24T09:21:26;2.92;;;2.63;;
50219;SDS011;36110;51.536;7.562;2022-08-24T09:29:41;2.72;;;2.40;;
50219;SDS011;36110;51.536;7.562;2022-08-24T09:34:57;6.55;;;2.50;;
50219;SDS011;36110;51.536;7.562;2022-08-24T09:56:12;10.60;;;2.93;;
50219;SDS011;36110;51.536;7.562;2022-08-24T10:21:45;11.63;;;2.58;;
50219;SDS011;36110;51.536;7.562;2022-08-24T10:27:05;6.93;;;2.30;;
50219;SDS011;36110;51.536;7.562;2022-08-24T10:29:45;6.68;;;2.60;;
50219;SDS011;36110;51.536;7.562;2022-08-24T10:32:17;4.47;;;2.03;;
50219;SDS011;36110;51.536;7.562;2022-08-24T10:35:12;5.10;;;2.20;;
50219;SDS011;36110;51.536;7.562;2022-08-24T10:43:37;6.13;;;2.25;;
50219;SDS011;36110;51.536;7.562;2022-08-24T10:46:26;5.80;;;2.30;;
50219;SDS011;36110;51.536;7.562;2022-08-24T10:57:43;5.43;;;2.22;;
50219;SDS011;36110;51.536;7.562;2022-08-24T11:00:15;3.72;;;2.55;;
50219;SDS011;36110;51.536;7.562;2022-08-24T11:02:43;6.10;;;3.15;;
50219;SDS011;36110;51.536;7.562;2022-08-24T11:05:11;4.90;;;2.20;;
50219;SDS011;36110;51.536;7.562;2022-08-24T11:07:54;10.30;;;2.53;;
50219;SDS011;36110;51.536;7.562;2022-08-24T11:10:26;6.75;;;2.67;;
50219;SDS011;36110;51.536;7.562;2022-08-24T11:12:53;10.20;;;2.50;;
50219;SDS011;36110;51.536;7.562;2022-08-24T11:17:54;8.30;;;2.08;;
50219;SDS011;36110;51.536;7.562;2022-08-24T11:23:02;5.55;;;2.30;;
50219;SDS011;36110;51.536;7.562;2022-08-24T11:25:32;5.90;;;2.30;;
50219;SDS011;36110;51.536;7.562;2022-08-24T11:28:06;6.03;;;2.67;;
50219;SDS011;36110;51.536;7.562;2022-08-24T11:30:45;5.80;;;2.17;;
50219;SDS011;36110;51.536;7.562;2022-08-24T11:35:59;7.30;;;2.42;;
50219;SDS011;36110;51.536;7.562;2022-08-24T11:38:29;2.50;;;2.00;;
50219;SDS011;36110;51.536;7.562;2022-08-24T11:41:01;9.90;;;2.38;;
50219;SDS011;36110;51.536;7.562;2022-08-24T11:43:46;4.55;;;2.10;;
50219;SDS011;36110;51.536;7.562;2022-08-24T11:46:47;2.03;;;1.80;;
50219;SDS011;36110;51.536;7.562;2022-08-24T11:59:52;4.20;;;1.95;;
50219;SDS011;36110;51.536;7.562;2022-08-24T12:02:27;3.53;;;1.98;;
50219;SDS011;36110;51.536;7.562;2022-08-24T12:05:29;7.10;;;2.10;;
50219;SDS011;36110;51.536;7.562;2022-08-24T12:10:49;4.55;;;2.08;;
50219;SDS011;36110;51.536;7.562;2022-08-24T12:13:31;6.60;;;2.20;;
50219;SDS011;36110;51.536;7.562;2022-08-24T12:16:03;6.35;;;2.80;;
50219;SDS011;36110;51.536;7.562;2022-08-24T12:26:07;5.05;;;2.03;;
50219;SDS011;36110;51.536;7.562;2022-08-24T12:28:43;5.40;;;2.25;;
50219;SDS011;36110;51.536;7.562;2022-08-24T12:31:15;7.00;;;2.15;;
50219;SDS011;36110;51.536;7.562;2022-08-24T12:33:47;4.32;;;2.00;;
50219;SDS011;36110;51.536;7.562;2022-08-24T12:36:20;3.95;;;2.10;;
50219;SDS011;36110;51.536;7.562;2022-08-24T12:39:00;2.13;;;1.70;;
50219;SDS011;36110;51.536;7.562;2022-08-24T12:41:35;9.38;;;1.90;;
50219;SDS011;36110;51.536;7.562;2022-08-24T12:44:09;10.63;;;2.25;;
50219;SDS011;36110;51.536;7.562;2022-08-24T12:46:37;5.53;;;2.25;;
50219;SDS011;36110;51.536;7.562;2022-08-24T12:49:26;3.35;;;2.10;;
50219;SDS011;36110;51.536;7.562;2022-08-24T12:57:34;4.20;;;2.22;;
50219;SDS011;36110;51.536;7.562;2022-08-24T13:00:23;5.75;;;2.00;;
50219;SDS011;36110;51.536;7.562;2022-08-24T13:03:02;6.32;;;2.40;;
50219;SDS011;36110;51.536;7.562;2022-08-24T13:05:41;8.43;;;2.38;;
50219;SDS011;36110;51.536;7.562;2022-08-24T13:08:09;4.28;;;1.98;;
50219;SDS011;36110;51.536;7.562;2022-08-24T13:10:42;5.85;;;1.90;;
50219;SDS011;36110;51.536;7.562;2022-08-24T13:13:19;4.83;;;2.10;;
50219;SDS011;36110;51.536;7.562;2022-08-24T13:33:58;4.68;;;2.10;;
50219;SDS011;36110;51.536;7.562;2022-08-24T13:41:35;4.72;;;1.90;;
50219;SDS011;36110;51.536;7.562;2022-08-24T13:44:10;4.50;;;2.10;;
50219;SDS011;36110;51.536;7.562;2022-08-24T13:46:52;3.20;;;2.00;;
50219;SDS011;36110;51.536;7.562;2022-08-24T13:52:18;3.92;;;2.13;;
50219;SDS011;36110;51.536;7.562;2022-08-24T13:57:33;3.80;;;2.15;;
50219;SDS011;36110;51.536;7.562;2022-08-24T14:05:34;3.75;;;2.03;;
50219;SDS011;36110;51.536;7.562;2022-08-24T14:13:49;2.80;;;1.80;;
50219;SDS011;36110;51.536;7.562;2022-08-24T14:16:37;2.65;;;2.03;;
50219;SDS011;36110;51.536;7.562;2022-08-24T14:19:29;1.65;;;1.50;;
50219;SDS011;36110;51.536;7.562;2022-08-24T14:25:00;2.07;;;1.60;;
50219;SDS011;36110;51.536;7.562;2022-08-24T14:35:14;5.97;;;2.33;;
50219;SDS011;36110;51.536;7.562;2022-08-24T14:40:39;2.95;;;1.67;;
50219;SDS011;36110;51.536;7.562;2022-08-24T14:49:13;4.95;;;2.30;;
50219;SDS011;36110;51.536;7.562;2022-08-24T14:51:50;2.40;;;1.77;;
50219;SDS011;36110;51.536;7.562;2022-08-24T14:54:35;10.02;;;2.05;;
50219;SDS011;36110;51.536;7.562;2022-08-24T14:57:29;5.68;;;2.20;;
50219;SDS011;36110;51.536;7.562;2022-08-24T15:08:00;2.58;;;1.67;;
50219;SDS011;36110;51.536;7.562;2022-08-24T15:16:14;2.92;;;1.70;;
50219;SDS011;36110;51.536;7.562;2022-08-24T15:24:21;1.70;;;1.60;;
50219;SDS011;36110;51.536;7.562;2022-08-24T15:29:59;3.78;;;1.85;;
50219;SDS011;36110;51.536;7.562;2022-08-24T15:32:43;5.47;;;2.00;;
50219;SDS011;36110;51.536;7.562;2022-08-24T15:35:23;3.92;;;2.20;;
50219;SDS011;36110;51.536;7.562;2022-08-24T15:37:51;1.50;;;1.40;;
50219;SDS011;36110;51.536;7.562;2022-08-24T15:40:30;1.42;;;1.33;;
50219;SDS011;36110;51.536;7.562;2022-08-24T15:42:57;2.67;;;1.90;;
50219;SDS011;36110;51.536;7.562;2022-08-24T15:45:24;6.25;;;2.38;;
50219;SDS011;36110;51.536;7.562;2022-08-24T15:47:52;3.65;;;2.10;;
50219;SDS011;36110;51.536;7.562;2022-08-24T15:52:58;4.57;;;2.00;;
50219;SDS011;36110;51.536;7.562;2022-08-24T15:55:28;2.33;;;2.00;;
50219;SDS011;36110;51.536;7.562;2022-08-24T15:57:57;6.00;;;2.10;;
50219;SDS011;36110;51.536;7.562;2022-08-24T16:00:34;5.80;;;2.00;;
50219;SDS011;36110;51.536;7.562;2022-08-24T16:05:47;7.75;;;1.98;;
50219;SDS011;36110;51.536;7.562;2022-08-24T16:08:13;6.15;;;2.03;;
50219;SDS011;36110;51.536;7.562;2022-08-24T16:24:23;2.05;;;1.85;;
50219;SDS011;36110;51.536;7.562;2022-08-24T16:27:09;3.15;;;2.20;;
50219;SDS011;36110;51.536;7.562;2022-08-24T16:34:30;3.97;;;2.15;;
50219;SDS011;36110;51.536;7.562;2022-08-24T16:36:58;3.78;;;1.80;;
50219;SDS011;36110;51.536;7.562;2022-08-24T16:39:24;6.57;;;2.35;;
50219;SDS011;36110;51.536;7.562;2022-08-24T16:41:51;4.22;;;2.10;;
50219;SDS011;36110;51.536;7.562;2022-08-24T16:44:18;5.10;;;2.30;;
50219;SDS011;36110;51.536;7.562;2022-08-24T16:46:44;2.97;;;2.15;;
50219;SDS011;36110;51.536;7.562;2022-08-24T16:49:09;2.88;;;1.63;;
50219;SDS011;36110;51.536;7.562;2022-08-24T16:51:34;3.80;;;2.10;;
50219;SDS011;36110;51.536;7.562;2022-08-24T16:54:00;7.38;;;2.33;;
50219;SDS011;36110;51.536;7.562;2022-08-24T16:56:25;3.85;;;1.83;;
50219;SDS011;36110;51.536;7.562;2022-08-24T16:58:51;5.72;;;2.00;;
50219;SDS011;36110;51.536;7.562;2022-08-24T17:01:16;7.07;;;2.03;;
50219;SDS011;36110;51.536;7.562;2022-08-24T17:03:42;5.43;;;2.25;;
50219;SDS011;36110;51.536;7.562;2022-08-24T17:06:08;6.82;;;2.25;;
50219;SDS011;36110;51.536;7.562;2022-08-24T17:08:36;3.97;;;2.10;;
50219;SDS011;36110;51.536;7.562;2022-08-24T17:11:01;4.13;;;2.60;;
50219;SDS011;36110;51.536;7.562;2022-08-24T17:13:28;3.70;;;2.40;;
50219;SDS011;36110;51.536;7.562;2022-08-24T17:15:54;3.13;;;1.80;;
50219;SDS011;36110;51.536;7.562;2022-08-24T17:18:19;5.07;;;2.28;;
50219;SDS011;36110;51.536;7.562;2022-08-24T17:20:45;6.00;;;1.98;;
50219;SDS011;36110;51.536;7.562;2022-08-24T17:23:11;2.97;;;2.10;;
50219;SDS011;36110;51.536;7.562;2022-08-24T17:25:37;8.18;;;2.50;;
50219;SDS011;36110;51.536;7.562;2022-08-24T17:28:06;5.78;;;2.50;;
50219;SDS011;36110;51.536;7.562;2022-08-24T17:30:32;2.75;;;1.73;;
50219;SDS011;36110;51.536;7.562;2022-08-24T17:32:57;1.73;;;1.60;;
50219;SDS011;36110;51.536;7.562;2022-08-24T17:35:23;4.90;;;1.90;;
50219;SDS011;36110;51.536;7.562;2022-08-24T17:37:49;2.58;;;1.80;;
50219;SDS011;36110;51.536;7.562;2022-08-24T17:40:19;6.00;;;2.17;;
50219;SDS011;36110;51.536;7.562;2022-08-24T17:42:47;3.00;;;1.75;;
50219;SDS011;36110;51.536;7.562;2022-08-24T17:45:13;2.28;;;1.42;;
50219;SDS011;36110;51.536;7.562;2022-08-24T17:47:39;5.68;;;2.22;;
50219;SDS011;36110;51.536;7.562;2022-08-24T17:50:05;4.57;;;2.50;;
50219;SDS011;36110;51.536;7.562;2022-08-24T17:52:34;4.03;;;2.00;;
50219;SDS011;36110;51.536;7.562;2022-08-24T17:55:00;2.65;;;1.73;;
50219;SDS011;36110;51.536;7.562;2022-08-24T17:57:25;6.15;;;2.13;;
50219;SDS011;36110;51.536;7.562;2022-08-24T17:59:51;3.08;;;1.80;;
50219;SDS011;36110;51.536;7.562;2022-08-24T18:02:17;5.40;;;1.92;;
50219;SDS011;36110;51.536;7.562;2022-08-24T18:04:43;5.25;;;2.10;;
50219;SDS011;36110;51.536;7.562;2022-08-24T18:07:10;6.95;;;1.85;;
50219;SDS011;36110;51.536;7.562;2022-08-24T18:09:45;6.45;;;2.20;;
50219;SDS011;36110;51.536;7.562;2022-08-24T18:12:12;6.75;;;2.20;;
50219;SDS011;36110;51.536;7.562;2022-08-24T18:14:39;6.03;;;2.00;;
50219;SDS011;36110;51.536;7.562;2022-08-24T18:17:05;2.25;;;1.83;;
50219;SDS011;36110;51.536;7.562;2022-08-24T18:19:33;4.93;;;2.20;;
50219;SDS011;36110;51.536;7.562;2022-08-24T18:21:59;4.18;;;2.28;;
50219;SDS011;36110;51.536;7.562;2022-08-24T18:24:25;4.78;;;2.17;;
50219;SDS011;36110;51.536;7.562;2022-08-24T18:26:56;3.83;;;2.20;;
50219;SDS011;36110;51.536;7.562;2022-08-24T18:29:22;5.43;;;2.30;;
50219;SDS011;36110;51.536;7.562;2022-08-24T18:31:47;7.00;;;2.15;;
50219;SDS011;36110;51.536;7.562;2022-08-24T18:34:20;2.53;;;1.80;;
50219;SDS011;36110;51.536;7.562;2022-08-24T18:36:46;1.50;;;1.40;;
50219;SDS011;36110;51.536;7.562;2022-08-24T18:39:11;2.88;;;1.30;;
50219;SDS011;36110;51.536;7.562;2022-08-24T18:41:37;1.50;;;1.40;;
50219;SDS011;36110;51.536;7.562;2022-08-24T18:44:04;1.35;;;1.25;;
50219;SDS011;36110;51.536;7.562;2022-08-24T18:46:31;1.60;;;1.50;;
50219;SDS011;36110;51.536;7.562;2022-08-24T18:48:59;1.48;;;1.38;;
50219;SDS011;36110;51.536;7.562;2022-08-24T18:51:25;1.40;;;1.30;;
50219;SDS011;36110;51.536;7.562;2022-08-24T18:53:54;1.52;;;1.42;;